Time;durP1;ratioP1;P1;durP2;ratioP2;P2;SDS_P1;SDS_P2;PMS_P1;PMS_P2;Temp;Humidity;BMP_temperature;BMP_pressure;BME280_temperature;BME280_humidity;BME280_pressure;Samples;Min_cycle;Max_cycle;Signal;HPM_P1;HPM_P2
2021/10/25 00:01:49;;;;;;;;;49.50;40.75;;;;;7.80;63.45;101243.31;5077931;28;47664;-61
2021/10/25 00:04:14;;;;;;;;;52.50;42.25;;;;;7.77;63.38;101249.59;5078321;27;45314;-61
2021/10/25 00:06:39;;;;;;;;;50.50;41.50;;;;;7.75;63.21;101246.25;5078004;27;45586;-61
2021/10/25 00:09:05;;;;;;;;;41.25;36.00;;;;;7.74;63.64;101249.78;5077889;27;45342;-61
2021/10/25 00:11:31;;;;;;;;;50.50;39.00;;;;;7.73;63.64;101251.56;5078156;28;45405;-61
2021/10/25 00:13:56;;;;;;;;;46.75;38.75;;;;;7.71;63.59;101247.38;5078071;27;45248;-61
2021/10/25 00:16:21;;;;;;;;;49.50;40.75;;;;;7.71;63.77;101244.75;5077146;27;65943;-61
2021/10/25 00:18:47;;;;;;;;;52.75;40.00;;;;;7.69;63.71;101252.69;5076940;28;67292;-61
2021/10/25 00:21:12;;;;;;;;;47.75;39.25;;;;;7.64;63.46;101249.56;5076997;28;65813;-60
2021/10/25 00:23:38;;;;;;;;;47.25;38.50;;;;;7.60;63.40;101249.84;5075947;28;45521;-61
2021/10/25 00:26:04;;;;;;;;;56.00;41.00;;;;;7.55;63.68;101248.34;5076427;28;46920;-61
2021/10/25 00:28:29;;;;;;;;;53.00;42.50;;;;;7.52;63.86;101247.72;5077679;28;45237;-61
2021/10/25 00:30:54;;;;;;;;;54.75;44.00;;;;;7.48;64.33;101241.84;5075732;28;65639;-61
2021/10/25 00:33:20;;;;;;;;;48.25;39.00;;;;;7.46;64.48;101241.09;5077038;28;62264;-60
2021/10/25 00:35:45;;;;;;;;;61.25;48.25;;;;;7.43;64.69;101238.69;5076648;28;70818;-61
2021/10/25 00:38:11;;;;;;;;;58.25;42.50;;;;;7.42;64.65;101237.84;5077509;28;45406;-61
2021/10/25 00:40:37;;;;;;;;;59.50;45.25;;;;;7.41;65.19;101232.75;5077708;28;45430;-61
2021/10/25 00:43:02;;;;;;;;;55.50;41.75;;;;;7.41;65.52;101235.34;5077637;28;45620;-61
2021/10/25 00:45:28;;;;;;;;;64.75;51.50;;;;;7.41;65.69;101230.13;5077321;27;45419;-61
2021/10/25 00:47:53;;;;;;;;;60.00;45.50;;;;;7.42;66.05;101237.00;5077169;28;50847;-61
2021/10/25 00:50:19;;;;;;;;;58.25;45.50;;;;;7.41;66.05;101230.94;5076948;28;45777;-61
2021/10/25 00:52:45;;;;;;;;;54.50;45.00;;;;;7.42;66.50;101221.31;5077400;28;45448;-61
2021/10/25 00:55:11;;;;;;;;;47.00;37.75;;;;;7.41;66.66;101219.66;5075249;28;69452;-61
2021/10/25 00:57:36;;;;;;;;;49.50;40.50;;;;;7.42;67.04;101216.09;5077181;27;45409;-61
2021/10/25 01:00:04;;;;;;;;;50.25;40.00;;;;;7.44;67.26;101219.44;5076263;28;45601;-61
2021/10/25 01:02:30;;;;;;;;;68.50;52.25;;;;;7.47;67.25;101224.47;5077426;28;45516;-61
2021/10/25 01:04:55;;;;;;;;;123.25;96.75;;;;;7.48;67.55;101205.22;5075797;28;46306;-61
2021/10/25 01:07:21;;;;;;;;;56.25;43.00;;;;;7.54;67.26;101204.84;5074953;28;63590;-60
2021/10/25 01:09:46;;;;;;;;;37.75;33.75;;;;;7.57;67.18;101209.88;5077358;28;45254;-61
2021/10/25 01:12:12;;;;;;;;;37.75;33.00;;;;;7.60;67.06;101211.47;5075833;28;48635;-61
2021/10/25 01:14:37;;;;;;;;;46.50;36.75;;;;;7.62;66.87;101216.56;5076988;27;46033;-61
2021/10/25 01:17:03;;;;;;;;;41.00;34.75;;;;;7.62;66.75;101209.59;5075244;27;59492;-61
2021/10/25 01:19:28;;;;;;;;;40.25;34.50;;;;;7.63;66.90;101213.03;5077085;28;45383;-61
2021/10/25 01:21:54;;;;;;;;;42.50;35.00;;;;;7.64;66.84;101204.25;5075879;28;45367;-60
2021/10/25 01:24:19;;;;;;;;;43.25;36.00;;;;;7.63;66.51;101208.66;5074801;28;65024;-61
2021/10/25 01:26:45;;;;;;;;;43.75;36.75;;;;;7.64;66.28;101209.47;5076305;27;55681;-61
2021/10/25 01:29:10;;;;;;;;;43.25;36.75;;;;;7.64;66.17;101214.69;5076637;28;45411;-61
2021/10/25 01:31:36;;;;;;;;;50.50;36.75;;;;;7.63;65.97;101206.03;5076842;27;45396;-60
2021/10/25 01:34:02;;;;;;;;;42.25;34.75;;;;;7.63;66.05;101213.03;5076195;28;47274;-60
2021/10/25 01:36:27;;;;;;;;;41.50;33.75;;;;;7.62;66.07;101216.56;5076158;28;45412;-61
2021/10/25 01:38:53;;;;;;;;;44.00;34.50;;;;;7.65;66.01;101213.75;5076659;28;47599;-61
2021/10/25 01:41:18;;;;;;;;;34.75;32.00;;;;;7.66;65.79;101212.81;5076022;28;60287;-61
2021/10/25 01:43:44;;;;;;;;;32.75;31.75;;;;;7.69;65.97;101213.44;5076545;28;46526;-61
2021/10/25 01:46:09;;;;;;;;;31.25;30.00;;;;;7.71;66.05;101216.81;5076675;28;45263;-60
2021/10/25 01:48:34;;;;;;;;;34.00;28.00;;;;;7.72;66.14;101215.88;5076796;28;45219;-60
2021/10/25 01:51:00;;;;;;;;;36.50;30.25;;;;;7.76;66.35;101213.06;5075321;28;45467;-61
2021/10/25 01:53:26;;;;;;;;;35.25;31.50;;;;;7.76;66.17;101213.91;5076527;28;46523;-61
2021/10/25 01:55:59;;;;;;;;;32.75;29.50;;;;;7.80;66.42;101210.16;5058492;28;45389;-61
2021/10/25 01:58:25;;;;;;;;;31.75;27.75;;;;;7.82;66.86;101207.41;5076677;27;45279;-61
2021/10/25 02:00:51;;;;;;;;;31.00;25.75;;;;;7.84;67.15;101201.16;5076621;28;45193;-60
2021/10/25 02:03:17;;;;;;;;;27.25;25.50;;;;;7.88;67.16;101201.78;5075041;28;46330;-61
2021/10/25 02:05:42;;;;;;;;;26.00;24.25;;;;;7.94;67.35;101204.00;5075438;28;67062;-61
2021/10/25 02:08:07;;;;;;;;;32.25;27.25;;;;;7.96;67.13;101194.25;5075657;28;63173;-61
2021/10/25 02:10:33;;;;;;;;;36.25;33.00;;;;;7.98;67.07;101199.38;5075208;28;45417;-60
2021/10/25 02:12:58;;;;;;;;;30.50;27.25;;;;;8.01;67.35;101196.56;5076210;28;45438;-61
2021/10/25 02:15:24;;;;;;;;;37.00;32.75;;;;;8.04;67.13;101183.28;5075681;28;57821;-61
2021/10/25 02:17:49;;;;;;;;;33.25;30.75;;;;;8.05;67.08;101178.88;5076331;28;45350;-61
2021/10/25 02:20:15;;;;;;;;;37.50;30.25;;;;;8.06;67.04;101184.00;5076278;28;45549;-60
2021/10/25 02:22:40;;;;;;;;;34.00;29.00;;;;;8.08;66.90;101186.53;5075517;28;54142;-61
2021/10/25 02:25:06;;;;;;;;;35.00;28.00;;;;;8.10;67.05;101177.63;5076191;28;45396;-61
2021/10/25 02:27:31;;;;;;;;;35.00;29.50;;;;;8.13;66.90;101180.03;5075957;28;45308;-61
2021/10/25 02:29:57;;;;;;;;;34.75;29.75;;;;;8.16;66.85;101179.81;5074942;28;45390;-60
2021/10/25 02:32:22;;;;;;;;;27.75;25.75;;;;;8.19;67.12;101181.41;5074704;28;45943;-61
2021/10/25 02:34:48;;;;;;;;;30.50;27.50;;;;;8.19;67.30;101172.72;5074787;28;45826;-61
2021/10/25 02:37:13;;;;;;;;;30.50;25.75;;;;;8.20;67.40;101177.84;5076012;28;45351;-60
2021/10/25 02:39:39;;;;;;;;;28.25;23.75;;;;;8.24;67.70;101173.25;5076027;27;45295;-60
2021/10/25 02:42:04;;;;;;;;;23.75;22.75;;;;;8.26;67.90;101168.72;5076005;28;46303;-61
2021/10/25 02:44:30;;;;;;;;;22.50;21.00;;;;;8.28;68.09;101166.84;5074742;27;45311;-61
2021/10/25 02:46:55;;;;;;;;;23.75;22.50;;;;;8.33;68.08;101170.00;5077387;28;60036;-61
2021/10/25 02:49:21;;;;;;;;;32.25;25.00;;;;;8.37;67.84;101168.84;5078050;28;45197;-60
2021/10/25 02:51:46;;;;;;;;;26.75;22.75;;;;;8.41;67.78;101166.84;5077936;27;45367;-61
2021/10/25 02:54:12;;;;;;;;;28.75;26.25;;;;;8.45;67.56;101163.91;5061143;28;45249;-61
2021/10/25 02:56:37;;;;;;;;;29.25;26.50;;;;;8.46;67.50;101160.34;5079504;27;45231;-61
2021/10/25 02:59:08;;;;;;;;;30.00;26.25;;;;;8.48;67.60;101154.16;5077340;27;62056;-61
2021/10/25 03:01:34;;;;;;;;;31.00;26.00;;;;;8.50;67.36;101153.13;5079136;27;45315;-61
2021/10/25 03:03:59;;;;;;;;;30.50;25.25;;;;;8.53;67.43;101154.69;5079145;28;45295;-61
2021/10/25 03:06:25;;;;;;;;;32.50;26.00;;;;;8.54;67.52;101158.97;5078256;27;60191;-61
2021/10/25 03:08:50;;;;;;;;;29.00;25.25;;;;;8.55;67.66;101161.50;5078413;28;58174;-61
2021/10/25 03:11:15;;;;;;;;;27.25;24.00;;;;;8.58;67.67;101161.28;5078982;28;46553;-61
2021/10/25 03:13:41;;;;;;;;;26.75;24.25;;;;;8.59;67.78;101157.72;5078923;27;45363;-60
2021/10/25 03:16:06;;;;;;;;;23.50;21.75;;;;;8.60;68.03;101155.94;5078438;27;57500;-61
2021/10/25 03:18:32;;;;;;;;;27.00;23.00;;;;;8.63;68.19;101154.91;5079049;27;45351;-61
2021/10/25 03:20:57;;;;;;;;;20.25;16.00;;;;;8.64;68.11;101154.78;5078734;27;46119;-60
2021/10/25 03:23:23;;;;;;;;;29.75;22.00;;;;;8.67;68.19;101157.19;5077522;27;70012;-61
2021/10/25 03:25:49;;;;;;;;;26.25;23.00;;;;;8.68;68.27;101147.56;5078893;27;45285;-61
2021/10/25 03:28:15;;;;;;;;;27.50;24.00;;;;;8.70;68.24;101146.50;5077621;28;45356;-61
2021/10/25 03:30:40;;;;;;;;;24.50;23.50;;;;;8.75;68.07;101148.78;5078606;28;45283;-60
2021/10/25 03:33:05;;;;;;;;;25.25;22.00;;;;;8.77;68.60;101154.75;5077621;28;45291;-61
2021/10/25 03:35:31;;;;;;;;;27.00;21.00;;;;;8.80;68.34;101151.91;5078162;28;59276;-61
2021/10/25 03:37:57;;;;;;;;;23.50;21.00;;;;;8.81;68.35;101153.56;5078691;28;45382;-61
2021/10/25 03:40:23;;;;;;;;;27.75;24.50;;;;;8.82;68.38;101151.81;5078572;27;46526;-61
2021/10/25 03:42:52;;;;;;;;;28.50;25.00;;;;;8.86;68.22;101150.66;5077206;28;45240;-60
2021/10/25 03:45:41;;;;;;;;;35.00;29.25;;;;;8.86;68.00;101161.94;5078717;27;45467;-61
2021/10/25 03:50:36;;;;;;;;;42.75;33.00;;;;;8.88;67.75;101151.38;5060690;28;46132;-61
2021/10/25 03:55:38;;;;;;;;;34.75;29.25;;;;;8.91;67.82;101151.16;5078408;28;45385;-61
2021/10/25 04:27:57;;;;;;;;;38.75;33.00;;;;;9.12;67.74;101158.41;5076685;28;45232;-61
2021/10/25 04:30:23;;;;;;;;;36.75;31.00;;;;;9.11;67.64;101154.97;5076444;28;45572;-60
2021/10/25 04:32:48;;;;;;;;;37.00;32.00;;;;;9.11;67.97;101156.72;5077140;27;58901;-61
2021/10/25 04:35:13;;;;;;;;;38.50;32.25;;;;;9.14;68.31;101159.13;5077873;28;45399;-60
2021/10/25 04:37:39;;;;;;;;;38.00;33.25;;;;;9.15;68.29;101155.56;5077523;27;45432;-61
2021/10/25 04:40:05;;;;;;;;;35.25;30.75;;;;;9.17;68.39;101158.91;5077716;28;45290;-61
2021/10/25 04:42:31;;;;;;;;;35.75;30.50;;;;;9.18;68.71;101160.59;5077316;27;46317;-61
2021/10/25 04:44:57;;;;;;;;;38.25;33.00;;;;;9.20;68.67;101158.69;5077631;27;45338;-60
2021/10/25 04:47:22;;;;;;;;;36.75;31.25;;;;;9.22;68.79;101148.91;5058304;28;68077;-61
2021/10/25 04:49:47;;;;;;;;;34.75;32.00;;;;;9.25;68.46;101151.31;5076806;27;53438;-61
2021/10/25 04:52:13;;;;;;;;;39.25;33.00;;;;;9.25;68.35;101140.00;5076323;28;66596;-61
2021/10/25 04:54:38;;;;;;;;;36.75;32.00;;;;;9.25;68.73;101140.84;5076559;28;64488;-61
2021/10/25 04:57:04;;;;;;;;;36.00;32.50;;;;;9.23;69.03;101147.16;5059104;28;45536;-61
2021/10/25 04:59:29;;;;;;;;;36.25;33.25;;;;;9.23;69.28;101147.16;5076479;27;61056;-61
2021/10/25 05:01:54;;;;;;;;;37.75;32.00;;;;;9.25;69.23;101161.81;5076998;28;50030;-61
2021/10/25 05:04:20;;;;;;;;;36.75;32.25;;;;;9.26;69.22;101167.91;5076527;27;63048;-61
2021/10/25 05:06:46;;;;;;;;;34.75;31.00;;;;;9.26;69.31;101153.00;5077406;27;45366;-60
2021/10/25 05:09:11;;;;;;;;;42.00;32.75;;;;;9.25;69.33;101146.09;5077007;27;45356;-61
2021/10/25 05:11:36;;;;;;;;;35.25;31.00;;;;;9.24;69.38;101146.22;5077069;28;45314;-61
2021/10/25 05:14:02;;;;;;;;;36.25;32.50;;;;;9.22;69.80;101141.06;5076338;28;68414;-61
2021/10/25 05:16:27;;;;;;;;;36.25;31.00;;;;;9.23;69.94;101134.88;5075390;28;45450;-61
2021/10/25 05:18:53;;;;;;;;;34.75;33.00;;;;;9.23;70.17;101134.88;5075703;27;45579;-61
2021/10/25 05:21:19;;;;;;;;;39.25;35.25;;;;;9.24;69.96;101133.91;5075850;28;67488;-61
2021/10/25 05:23:44;;;;;;;;;31.00;29.75;;;;;9.25;70.30;101137.38;5076622;27;45949;-61
2021/10/25 05:26:10;;;;;;;;;34.75;32.00;;;;;9.24;70.67;101128.66;5077098;27;45248;-61
2021/10/25 05:28:36;;;;;;;;;31.00;29.75;;;;;9.23;70.42;101132.25;5076794;28;45420;-61
2021/10/25 05:31:01;;;;;;;;;32.00;25.50;;;;;9.25;70.59;101132.97;5076634;28;48911;-61
2021/10/25 05:33:26;;;;;;;;;31.25;26.75;;;;;9.25;70.77;101127.72;5076292;27;52147;-61
2021/10/25 05:35:52;;;;;;;;;28.75;26.50;;;;;9.30;70.59;101128.22;5076719;28;45357;-60
2021/10/25 05:38:18;;;;;;;;;27.00;23.00;;;;;9.33;70.56;101137.63;5076009;28;59958;-61
2021/10/25 05:40:44;;;;;;;;;27.75;23.75;;;;;9.32;70.70;101131.56;5075176;27;46221;-60
2021/10/25 05:43:10;;;;;;;;;28.50;23.25;;;;;9.35;70.48;101135.75;5076469;27;45219;-61
2021/10/25 05:45:35;;;;;;;;;25.75;22.50;;;;;9.33;70.56;101128.00;5076794;28;45322;-61
2021/10/25 05:48:00;;;;;;;;;24.25;20.25;;;;;9.35;70.86;101123.47;5076580;27;45540;-61
2021/10/25 05:50:26;;;;;;;;;24.00;24.00;;;;;9.38;70.77;101126.81;5076360;28;45465;-60
2021/10/25 05:52:51;;;;;;;;;25.50;20.50;;;;;9.39;70.68;101120.63;5076533;27;45258;-61
2021/10/25 05:55:22;;;;;;;;;26.00;20.75;;;;;9.40;70.54;101127.56;5075888;28;58396;-61
2021/10/25 05:57:48;;;;;;;;;25.25;20.75;;;;;9.41;70.83;101121.34;5076517;28;45334;-60
2021/10/25 06:00:15;;;;;;;;;27.50;22.50;;;;;9.40;70.89;101122.31;5076337;27;45379;-61
2021/10/25 06:02:42;;;;;;;;;23.50;21.00;;;;;9.41;70.91;101118.72;5076292;28;46044;-61
2021/10/25 06:05:08;;;;;;;;;25.00;20.50;;;;;9.42;70.72;101123.03;5076676;28;45207;-62
2021/10/25 06:07:33;;;;;;;;;28.25;22.00;;;;;9.43;70.71;101117.66;5076239;27;45529;-62
2021/10/25 06:09:59;;;;;;;;;23.00;21.50;;;;;9.41;70.84;101124.78;5076269;28;45346;-62
2021/10/25 06:12:25;;;;;;;;;24.75;22.25;;;;;9.40;70.82;101124.94;5076075;27;45310;-60
2021/10/25 06:14:54;;;;;;;;;23.50;23.50;;;;;9.40;71.12;101127.56;5076213;28;45364;-60
2021/10/25 06:20:00;;;;;;;;;22.25;20.00;;;;;9.39;71.03;101115.38;5075848;28;45883;-60
2021/10/25 06:22:28;;;;;;;;;24.75;20.25;;;;;9.39;71.37;101115.38;5078122;28;58974;-60
2021/10/25 06:24:53;;;;;;;;;37.50;30.25;;;;;9.39;71.18;101113.59;5079808;28;45320;-60
2021/10/25 06:27:19;;;;;;;;;18.00;17.00;;;;;9.40;71.28;101119.69;5078967;27;62324;-60
2021/10/25 06:29:44;;;;;;;;;26.75;22.50;;;;;9.41;71.33;101118.72;5079426;27;45270;-60
2021/10/25 06:32:09;;;;;;;;;25.75;17.00;;;;;9.42;71.38;101107.28;5078879;27;64819;-60
2021/10/25 06:34:40;;;;;;;;;22.25;21.25;;;;;9.42;71.27;101115.97;5079654;28;45745;-59
2021/10/25 06:37:06;;;;;;;;;22.25;19.75;;;;;9.42;71.28;101121.22;5079624;28;45286;-60
2021/10/25 06:39:37;;;;;;;;;26.00;21.25;;;;;9.41;71.56;101126.59;5078095;27;45728;-59
2021/10/25 06:42:04;;;;;;;;;24.75;24.00;;;;;9.40;71.64;101138.03;5079339;28;45234;-60
2021/10/25 06:44:30;;;;;;;;;22.25;20.25;;;;;9.42;71.48;101146.63;5079488;27;45369;-60
2021/10/25 06:46:56;;;;;;;;;22.75;19.25;;;;;9.42;71.63;101151.88;5079474;28;45346;-59
2021/10/25 06:49:21;;;;;;;;;18.75;18.25;;;;;9.43;71.47;101145.69;5078957;28;46065;-60
2021/10/25 06:51:46;;;;;;;;;20.75;18.25;;;;;9.44;71.68;101149.97;5078247;28;58073;-59
2021/10/25 06:54:13;;;;;;;;;24.25;19.50;;;;;9.45;71.81;101138.53;5079088;28;45386;-60
2021/10/25 06:56:39;;;;;;;;;22.25;18.25;;;;;9.46;72.03;101140.22;5079183;27;45323;-60
2021/10/25 06:59:04;;;;;;;;;17.25;16.50;;;;;9.49;72.12;101142.59;5076885;27;71587;-60
2021/10/25 07:01:30;;;;;;;;;21.25;18.00;;;;;9.52;71.89;101150.25;5079209;27;45421;-60
2021/10/25 07:03:55;;;;;;;;;25.75;22.00;;;;;9.54;71.78;101145.69;5079134;28;45308;-60
2021/10/25 07:06:21;;;;;;;;;24.00;21.25;;;;;9.56;71.62;101146.41;5077687;27;45616;-60
2021/10/25 07:08:48;;;;;;;;;26.75;22.00;;;;;9.60;71.84;101163.63;5078617;28;46266;-60
2021/10/25 07:11:15;;;;;;;;;19.50;16.00;;;;;9.61;71.97;101162.66;5078848;27;45357;-60
2021/10/25 07:13:45;;;;;;;;;24.50;23.25;;;;;9.64;71.88;101162.44;5078928;27;45361;-60
2021/10/25 07:16:21;;;;;;;;;21.75;21.25;;;;;9.65;72.06;101164.09;5077665;27;45463;-60
2021/10/25 07:19:11;;;;;;;;;24.50;19.00;;;;;9.68;71.89;101149.09;5077256;27;47445;-60
2021/10/25 08:10:25;;;;;;;;;26.75;23.00;;;;;10.00;72.58;101182.59;5056127;28;45613;-60
2021/10/25 08:12:58;;;;;;;;;23.75;22.75;;;;;10.01;72.62;101179.84;5077719;27;46241;-60
2021/10/25 08:15:28;;;;;;;;;27.00;23.50;;;;;10.03;72.87;101190.22;5078239;28;45528;-60
2021/10/25 08:17:57;;;;;;;;;27.50;22.50;;;;;10.04;73.04;101184.84;5077942;27;45237;-60
2021/10/25 08:20:23;;;;;;;;;25.75;23.00;;;;;10.05;72.98;101180.44;5078004;27;45398;-60
2021/10/25 08:22:48;;;;;;;;;25.50;20.50;;;;;10.06;73.21;101182.94;5076743;28;68387;-60
2021/10/25 08:25:14;;;;;;;;;18.50;17.25;;;;;10.07;73.25;101173.25;5077838;28;45246;-60
2021/10/25 08:27:41;;;;;;;;;22.00;21.00;;;;;10.09;73.18;101180.09;5077833;28;45385;-60
2021/10/25 08:30:07;;;;;;;;;22.75;22.00;;;;;10.12;73.25;101176.38;5076633;28;45465;-59
2021/10/25 08:35:17;;;;;;;;;27.00;24.25;;;;;10.19;73.19;101182.84;5077635;28;45874;-60
2021/10/25 08:40:27;;;;;;;;;26.75;23.50;;;;;10.24;73.35;101178.06;5076727;28;45401;-60
2021/10/25 08:42:53;;;;;;;;;28.50;25.25;;;;;10.28;73.46;101180.47;5076357;28;45481;-60
2021/10/25 08:45:22;;;;;;;;;26.75;21.00;;;;;10.30;73.91;101181.19;5075267;28;62004;-60
2021/10/25 08:47:49;;;;;;;;;31.50;24.75;;;;;10.32;73.91;101181.91;5077581;27;45295;-60
2021/10/25 08:50:19;;;;;;;;;32.75;27.75;;;;;10.33;73.60;101179.13;5077172;27;45401;-60
2021/10/25 08:52:45;;;;;;;;;35.00;32.00;;;;;10.36;73.54;101178.09;5075994;27;46105;-60
2021/10/25 08:55:12;;;;;;;;;38.00;34.75;;;;;10.38;73.84;101178.81;5077277;27;45240;-60
2021/10/25 08:57:41;;;;;;;;;37.50;32.75;;;;;10.42;73.88;101182.03;5075646;27;45331;-60
2021/10/25 09:00:11;;;;;;;;;39.50;34.00;;;;;10.43;73.84;101181.09;5077384;27;45351;-60
2021/10/25 09:02:41;;;;;;;;;32.50;23.50;;;;;10.46;73.78;101178.22;5077033;28;47073;-59
2021/10/25 09:05:08;;;;;;;;;32.25;28.25;;;;;10.49;73.94;101176.22;5076140;28;45883;-60
2021/10/25 09:07:50;;;;;;;;;32.25;29.25;;;;;10.52;73.57;101178.59;5077233;28;45334;-60
2021/10/25 09:10:24;;;;;;;;;38.50;34.25;;;;;10.56;74.10;101178.38;5077258;28;45432;-60
2021/10/25 09:12:57;;;;;;;;;32.75;30.50;;;;;10.59;73.78;101178.13;5077016;28;45570;-60
2021/10/25 09:15:26;;;;;;;;;50.25;37.75;;;;;10.63;74.13;101179.53;5077040;28;45401;-60
2021/10/25 09:17:52;;;;;;;;;51.00;39.50;;;;;10.66;74.33;101176.66;5077059;28;45369;-60
2021/10/25 09:20:17;;;;;;;;;41.00;33.50;;;;;10.71;74.13;101179.75;5077080;27;45352;-60
2021/10/25 09:22:44;;;;;;;;;24.25;23.25;;;;;10.75;74.39;101173.31;5076565;27;45369;-60
2021/10/25 09:25:09;;;;;;;;;30.75;30.75;;;;;10.78;74.00;101173.06;5077084;28;45426;-60
2021/10/25 09:27:38;;;;;;;;;21.75;19.75;;;;;10.83;73.81;101175.34;5076533;27;45807;-60
2021/10/25 09:30:07;;;;;;;;;31.00;27.75;;;;;10.87;73.92;101171.50;5076765;27;45431;-60
2021/10/25 09:32:33;;;;;;;;;33.25;28.75;;;;;10.91;74.01;101172.09;5075183;28;46154;-60
2021/10/25 09:35:01;;;;;;;;;30.25;25.75;;;;;10.93;74.15;101168.38;5076718;28;45338;-60
2021/10/25 09:37:31;;;;;;;;;37.50;31.25;;;;;10.99;74.56;101169.69;5076629;28;45305;-60
2021/10/25 09:40:15;;;;;;;;;30.75;25.75;;;;;11.03;74.42;101170.28;5075314;28;45328;-60
2021/10/25 09:42:54;;;;;;;;;30.25;29.00;;;;;11.09;74.67;101167.16;5076336;28;45396;-60
2021/10/25 09:50:29;;;;;;;;;48.00;37.00;;;;;11.27;74.27;101173.56;5076555;27;45321;-59
2021/10/25 09:52:55;;;;;;;;;37.25;31.00;;;;;11.32;74.38;101160.03;5075021;27;45635;-60
2021/10/25 09:55:20;;;;;;;;;37.25;31.25;;;;;11.38;74.54;101161.34;5075846;28;45260;-60
2021/10/25 10:00:13;;;;;;;;;36.00;29.75;;;;;11.47;74.38;101151.84;5076125;28;45227;-60
2021/10/25 10:02:39;;;;;;;;;40.25;33.50;;;;;11.53;74.27;101149.53;5075012;28;46194;-59
2021/10/25 10:05:06;;;;;;;;;34.75;31.25;;;;;11.57;74.23;101155.38;5076283;28;45834;-60
2021/10/25 10:07:35;;;;;;;;;39.50;31.50;;;;;11.62;73.89;101149.72;5076301;27;45424;-60
2021/10/25 10:10:00;;;;;;;;;29.25;25.00;;;;;11.66;74.22;101154.59;5075889;28;45458;-60
2021/10/25 10:12:26;;;;;;;;;34.00;28.00;;;;;11.72;74.02;101148.00;5076144;28;45334;-60
2021/10/25 10:14:53;;;;;;;;;30.00;27.75;;;;;11.74;74.15;101151.34;5076221;28;45177;-60
2021/10/25 10:17:21;;;;;;;;;33.75;28.25;;;;;11.80;74.05;101155.25;5076356;28;45354;-60
2021/10/25 10:19:48;;;;;;;;;36.00;31.50;;;;;11.82;74.16;101151.53;5058180;28;45360;-60
2021/10/25 10:22:13;;;;;;;;;38.75;31.75;;;;;11.88;73.43;101152.81;5074741;28;45709;-60
2021/10/25 10:24:40;;;;;;;;;36.75;31.00;;;;;11.92;73.69;101159.47;5056920;28;65732;-60
2021/10/25 10:27:08;;;;;;;;;39.00;30.50;;;;;11.93;74.00;101155.88;5076187;28;45282;-60
2021/10/25 10:29:38;;;;;;;;;36.00;31.00;;;;;11.96;73.43;101168.78;5076051;27;45615;-60
2021/10/25 10:32:05;;;;;;;;;35.00;31.00;;;;;11.97;73.40;101159.94;5076068;27;46244;-60
2021/10/25 10:34:41;;;;;;;;;30.75;26.25;;;;;12.01;73.30;101168.44;5075860;27;46136;-60
2021/10/25 10:37:20;;;;;;;;;29.50;28.50;;;;;12.04;73.43;101162.09;5074740;27;45331;-60
2021/10/25 10:40:11;;;;;;;;;29.75;29.75;;;;;12.06;73.15;101163.59;5075781;28;45510;-60
2021/10/25 10:42:37;;;;;;;;;33.25;28.75;;;;;12.07;73.22;101165.28;5074428;28;46340;-60
2021/10/25 10:45:07;;;;;;;;;29.75;27.50;;;;;12.09;73.07;101167.78;5075853;28;45378;-60
2021/10/25 10:48:07;;;;;;;;;30.25;28.25;;;;;12.10;73.76;101182.63;5076015;27;45331;-60
2021/10/25 10:50:48;;;;;;;;;26.25;25.00;;;;;12.12;73.26;101181.53;5071754;27;45507;-60
2021/10/25 10:53:18;;;;;;;;;33.75;28.75;;;;;12.15;73.35;101185.72;5073967;27;47583;-60
2021/10/25 10:55:44;;;;;;;;;28.00;25.25;;;;;12.18;72.79;101193.38;5075730;27;45795;-60
2021/10/25 10:58:38;;;;;;;;;29.75;27.00;;;;;12.18;72.51;101185.47;5074579;28;45289;-60
2021/10/25 11:01:05;;;;;;;;;23.25;21.50;;;;;12.21;72.60;101181.72;5074699;27;45293;-60
2021/10/25 11:03:31;;;;;;;;;26.25;24.50;;;;;12.23;73.12;101185.06;5074215;28;46464;-60
2021/10/25 11:06:04;;;;;;;;;30.75;25.50;;;;;12.27;72.91;101189.91;5075604;28;45855;-60
2021/10/25 11:08:32;;;;;;;;;32.50;27.50;;;;;12.29;73.23;101195.91;5078428;28;45404;-60
2021/10/25 11:11:02;;;;;;;;;31.50;26.50;;;;;12.31;73.26;101188.69;5078947;27;45525;-60
2021/10/25 11:13:29;;;;;;;;;29.00;26.50;;;;;12.35;72.86;101188.44;5076913;27;46154;-60
2021/10/25 11:16:11;;;;;;;;;27.75;26.00;;;;;12.37;73.15;101184.72;5078457;27;45486;-60
2021/10/25 11:18:43;;;;;;;;;34.25;28.75;;;;;12.40;72.95;101186.25;5077814;28;45248;-60
2021/10/25 11:21:10;;;;;;;;;34.00;26.50;;;;;12.44;73.15;101191.13;5078876;27;45518;-60
2021/10/25 11:23:40;;;;;;;;;33.25;28.00;;;;;12.48;73.04;101189.06;5077135;27;45375;-60
2021/10/25 11:26:10;;;;;;;;;27.25;25.75;;;;;12.50;72.79;101186.28;5078754;27;45999;-60
2021/10/25 11:28:36;;;;;;;;;44.50;36.00;;;;;12.51;72.83;101183.50;5077399;27;45359;-60
2021/10/25 11:31:02;;;;;;;;;38.50;32.75;;;;;12.54;72.51;101188.53;5078178;27;58741;-60
2021/10/25 11:33:28;;;;;;;;;47.00;38.25;;;;;12.56;72.55;101193.66;5077572;28;46398;-60
2021/10/25 11:35:53;;;;;;;;;38.25;31.75;;;;;12.55;73.12;101190.19;5077104;27;45235;-60
2021/10/25 11:38:19;;;;;;;;;29.25;24.25;;;;;12.58;72.66;101189.09;5077238;28;45315;-60
2021/10/25 11:40:44;;;;;;;;;33.25;26.50;;;;;12.59;73.15;101186.31;5078575;27;45593;-60
2021/10/25 11:43:10;;;;;;;;;39.50;30.75;;;;;12.59;72.66;101178.41;5078175;28;45394;-60
2021/10/25 11:45:35;;;;;;;;;36.50;33.00;;;;;12.59;73.05;101175.78;5078285;28;45482;-59
2021/10/25 11:48:01;;;;;;;;;53.25;41.75;;;;;12.61;72.82;101176.47;5077852;28;59200;-60
2021/10/25 11:50:28;;;;;;;;;40.75;35.00;;;;;12.64;72.78;101179.81;5078497;28;45546;-60
2021/10/25 11:53:01;;;;;;;;;47.00;35.25;;;;;12.65;72.86;101181.50;5077129;28;46018;-61
2021/10/25 11:55:37;;;;;;;;;41.00;33.25;;;;;12.66;73.09;101170.78;5077067;27;45272;-60
2021/10/25 11:58:07;;;;;;;;;41.00;33.25;;;;;12.67;73.51;101172.47;5077049;27;45338;-60
2021/10/25 12:00:39;;;;;;;;;45.50;36.50;;;;;12.69;73.20;101170.53;5078205;28;45571;-60
2021/10/25 12:03:08;;;;;;;;;33.75;30.25;;;;;12.71;73.18;101170.41;5078019;28;46361;-60
2021/10/25 12:05:34;;;;;;;;;34.25;29.25;;;;;12.71;73.66;101170.41;5077968;28;45385;-60
2021/10/25 12:07:59;;;;;;;;;28.75;26.50;;;;;12.71;73.09;101167.78;5076312;28;62914;-60
2021/10/25 12:10:25;;;;;;;;;33.25;29.75;;;;;12.73;73.46;101166.66;5077914;27;45589;-60
2021/10/25 12:12:52;;;;;;;;;34.75;30.75;;;;;12.76;73.32;101165.53;5077650;28;45393;-61
2021/10/25 12:15:18;;;;;;;;;36.00;30.25;;;;;12.77;73.27;101164.56;5076442;27;45918;-60
2021/10/25 12:17:43;;;;;;;;;27.50;23.50;;;;;12.80;73.46;101166.94;5077720;27;45406;-60
2021/10/25 12:20:19;;;;;;;;;34.75;29.00;;;;;12.82;73.71;101162.38;5059043;27;45576;-60
2021/10/25 12:22:45;;;;;;;;;39.50;31.75;;;;;12.86;73.65;101155.84;5077284;28;46100;-60
2021/10/25 12:25:11;;;;;;;;;34.50;29.50;;;;;12.88;73.71;101164.47;5075818;28;46028;-60
2021/10/25 12:27:38;;;;;;;;;36.50;30.00;;;;;12.93;73.42;101164.06;5077905;28;45711;-60
2021/10/25 12:30:11;;;;;;;;;34.00;29.50;;;;;12.98;73.49;101163.66;5077153;28;45200;-60
2021/10/25 12:32:39;;;;;;;;;36.25;31.25;;;;;13.02;73.32;101149.22;5077291;28;47283;-60
2021/10/25 12:35:05;;;;;;;;;38.25;30.25;;;;;13.10;73.37;101149.38;5077585;28;45928;-61
2021/10/25 12:37:32;;;;;;;;;29.25;25.75;;;;;13.13;73.29;101151.75;5077588;27;45334;-60
2021/10/25 12:39:58;;;;;;;;;24.50;23.50;;;;;13.19;73.61;101148.56;5077355;28;45451;-60
2021/10/25 12:42:25;;;;;;;;;29.50;26.25;;;;;13.26;73.57;101140.06;5077159;28;46462;-60
2021/10/25 12:44:53;;;;;;;;;25.00;22.25;;;;;13.31;73.70;101137.84;5059065;28;45301;-61
2021/10/25 12:47:21;;;;;;;;;24.75;19.75;;;;;13.40;73.43;101136.19;5076095;28;45292;-60
2021/10/25 12:49:50;;;;;;;;;24.00;21.00;;;;;13.45;73.23;101121.63;5075844;27;45451;-60
2021/10/25 12:52:16;;;;;;;;;19.75;18.50;;;;;13.52;72.98;101123.69;5077145;28;46151;-60
2021/10/25 12:54:42;;;;;;;;;25.25;23.00;;;;;13.58;72.88;101123.13;5077332;27;45170;-60